Time;durP1;ratioP1;P1;durP2;ratioP2;P2;SDS_P1;SDS_P2;PMS_P1;PMS_P2;Temp;Humidity;BMP_temperature;BMP_pressure;BME280_temperature;BME280_humidity;BME280_pressure;Samples;Min_cycle;Max_cycle;Signal;HPM_P1;HPM_P2
2023/06/19 00:00:41;;;;;;;13.85;10.45;;;24.90;76.90;;;;;;1971676;28;20112;-66
2023/06/19 00:01:38;;;;;;;12.75;10.70;;;24.90;76.90;;;;;;1980545;28;20043;-65
2023/06/19 00:02:36;;;;;;;14.10;10.38;;;24.90;76.90;;;;;;1979558;28;20171;-66
2023/06/19 00:03:33;;;;;;;16.65;10.20;;;24.90;76.90;;;;;;1972936;28;20094;-66
2023/06/19 00:04:31;;;;;;;22.58;11.35;;;24.90;76.90;;;;;;1972336;28;20140;-66
2023/06/19 00:05:29;;;;;;;18.00;10.20;;;24.90;76.90;;;;;;1974578;28;20029;-66
2023/06/19 00:06:26;;;;;;;14.85;9.82;;;24.90;76.90;;;;;;1971750;28;20064;-66
2023/06/19 00:07:24;;;;;;;17.17;11.23;;;24.90;76.90;;;;;;1974082;28;20028;-66
2023/06/19 00:08:21;;;;;;;19.48;11.15;;;24.80;76.90;;;;;;1971032;28;20026;-66
2023/06/19 00:09:19;;;;;;;15.43;10.50;;;24.90;76.90;;;;;;1973789;28;20103;-66
2023/06/19 00:10:16;;;;;;;15.98;10.70;;;24.90;76.90;;;;;;1972197;28;20110;-66
2023/06/19 00:11:14;;;;;;;17.70;10.65;;;24.90;76.90;;;;;;1973111;28;20059;-66
2023/06/19 00:12:11;;;;;;;17.65;11.63;;;24.90;76.90;;;;;;1973771;28;20480;-66
2023/06/19 00:13:09;;;;;;;15.93;11.82;;;24.90;76.90;;;;;;1971233;28;20030;-66
2023/06/19 00:14:06;;;;;;;15.45;11.15;;;24.90;76.90;;;;;;1973409;28;20022;-66
2023/06/19 00:15:05;;;;;;;17.75;11.20;;;24.90;76.90;;;;;;1972562;28;20519;-66
2023/06/19 00:16:02;;;;;;;13.80;10.07;;;24.90;76.90;;;;;;1971667;28;20733;-66
2023/06/19 00:17:00;;;;;;;12.13;9.13;;;24.90;77.00;;;;;;1972632;28;20036;-66
2023/06/19 00:17:59;;;;;;;17.15;11.38;;;24.90;77.00;;;;;;1972895;28;20026;-65
2023/06/19 00:18:56;;;;;;;17.17;11.52;;;24.90;77.00;;;;;;1971556;28;20132;-66
2023/06/19 00:19:54;;;;;;;16.25;11.00;;;24.90;77.00;;;;;;1973234;28;20083;-66
2023/06/19 00:20:54;;;;;;;16.75;10.10;;;24.90;77.20;;;;;;1971981;28;20148;-66
2023/06/19 00:21:56;;;;;;;16.38;11.45;;;24.90;76.90;;;;;;1972459;28;20044;-66
2023/06/19 00:22:54;;;;;;;14.85;10.32;;;24.90;76.90;;;;;;1973204;28;20121;-66
2023/06/19 00:23:52;;;;;;;13.77;10.88;;;24.90;76.90;;;;;;1972967;28;20726;-66
2023/06/19 00:24:51;;;;;;;18.55;10.65;;;24.90;76.90;;;;;;1971885;28;20568;-66
2023/06/19 00:25:49;;;;;;;15.40;10.55;;;24.90;76.90;;;;;;1972681;28;20029;-66
2023/06/19 00:26:46;;;;;;;16.52;10.73;;;24.90;76.90;;;;;;1971077;28;20032;-66
2023/06/19 00:27:44;;;;;;;14.77;10.20;;;24.90;77.00;;;;;;1971896;28;20017;-66
2023/06/19 00:28:43;;;;;;;15.30;10.57;;;24.90;77.00;;;;;;1972771;28;20017;-66
2023/06/19 00:29:41;;;;;;;17.48;10.88;;;24.90;77.00;;;;;;1973796;28;20028;-66
2023/06/19 00:30:38;;;;;;;14.65;10.35;;;24.90;77.00;;;;;;1973282;28;20036;-66
2023/06/19 00:31:37;;;;;;;15.63;10.65;;;24.90;77.00;;;;;;1973479;28;20037;-66
2023/06/19 00:32:46;;;;;;;15.25;11.32;;;24.90;77.00;;;;;;1973828;28;20029;-66
2023/06/19 00:33:44;;;;;;;18.33;10.82;;;24.90;77.00;;;;;;1972706;28;20070;-66
2023/06/19 00:34:45;;;;;;;18.13;10.68;;;24.90;77.00;;;;;;1972982;28;20032;-66
2023/06/19 00:35:43;;;;;;;15.25;11.05;;;24.90;77.00;;;;;;1973055;28;20025;-66
2023/06/19 00:36:40;;;;;;;16.50;10.35;;;24.80;76.90;;;;;;1979089;28;20132;-66
2023/06/19 00:37:38;;;;;;;17.55;11.13;;;24.90;77.00;;;;;;1980421;28;20033;-66
2023/06/19 00:38:36;;;;;;;12.48;10.68;;;24.90;77.00;;;;;;1970745;28;20029;-66
2023/06/19 00:39:33;;;;;;;14.18;10.63;;;24.90;77.00;;;;;;1971491;28;20025;-66
2023/06/19 00:40:32;;;;;;;16.83;11.20;;;24.90;77.00;;;;;;1970360;28;20028;-66
2023/06/19 00:41:30;;;;;;;18.48;11.10;;;24.90;77.00;;;;;;1971778;28;20068;-66
2023/06/19 00:42:28;;;;;;;14.20;10.00;;;25.00;77.00;;;;;;1962254;28;20019;-66
2023/06/19 00:43:25;;;;;;;13.48;10.40;;;24.90;77.00;;;;;;1963441;28;20032;-66
2023/06/19 00:44:23;;;;;;;14.50;10.55;;;24.90;77.00;;;;;;1970013;28;20017;-66
2023/06/19 00:45:20;;;;;;;14.48;10.60;;;24.90;77.00;;;;;;1968894;28;20026;-66
2023/06/19 00:46:18;;;;;;;15.55;10.85;;;24.90;77.00;;;;;;1971752;28;20017;-66
2023/06/19 00:47:15;;;;;;;19.65;10.50;;;24.90;77.00;;;;;;1972953;28;20043;-66
2023/06/19 00:48:13;;;;;;;15.40;11.07;;;24.90;77.00;;;;;;1974639;28;21220;-66
2023/06/19 00:49:11;;;;;;;13.68;10.55;;;24.80;76.90;;;;;;1971050;28;20051;-66
2023/06/19 00:50:09;;;;;;;13.52;10.27;;;25.00;77.00;;;;;;1961784;28;20734;-66
2023/06/19 00:51:06;;;;;;;16.08;11.27;;;24.90;77.00;;;;;;1964148;28;20026;-66
2023/06/19 00:52:04;;;;;;;14.75;10.93;;;24.90;77.00;;;;;;1971545;28;20022;-66
2023/06/19 00:53:03;;;;;;;18.42;11.32;;;24.90;77.00;;;;;;1973015;28;20025;-66
2023/06/19 00:54:00;;;;;;;14.90;10.35;;;25.00;77.00;;;;;;1966196;28;20142;-66
2023/06/19 00:54:58;;;;;;;14.23;10.70;;;24.90;77.00;;;;;;1964959;28;20058;-66
2023/06/19 00:55:56;;;;;;;17.50;10.43;;;24.90;77.00;;;;;;1973443;28;20132;-66
2023/06/19 00:56:53;;;;;;;15.63;10.27;;;24.80;76.90;;;;;;1974466;28;20033;-66
2023/06/19 00:57:52;;;;;;;15.95;9.95;;;24.90;76.90;;;;;;1974811;28;20021;-66
2023/06/19 00:58:50;;;;;;;14.40;9.75;;;24.90;76.90;;;;;;1974522;28;20510;-66
2023/06/19 00:59:48;;;;;;;17.63;11.65;;;24.90;77.00;;;;;;1973290;28;20025;-66
2023/06/19 01:00:45;;;;;;;17.50;10.70;;;24.90;77.00;;;;;;1965808;28;20433;-66
2023/06/19 01:01:43;;;;;;;13.02;10.10;;;24.90;77.00;;;;;;1970389;28;20056;-66
2023/06/19 01:02:40;;;;;;;15.35;10.70;;;24.90;76.90;;;;;;1974175;28;20064;-66
2023/06/19 01:03:38;;;;;;;15.95;10.93;;;24.90;76.90;;;;;;1974453;28;20227;-66
2023/06/19 01:04:35;;;;;;;14.40;10.38;;;24.90;77.00;;;;;;1973996;28;20025;-66
2023/06/19 01:05:33;;;;;;;11.05;9.07;;;24.90;76.90;;;;;;1973305;28;20026;-66
2023/06/19 01:06:38;;;;;;;17.13;11.02;;;24.90;76.90;;;;;;1981009;28;20388;-66
2023/06/19 01:07:53;;;;;;;13.60;10.52;;;24.90;76.90;;;;;;1965946;28;20026;-66
2023/06/19 01:09:03;;;;;;;15.55;10.25;;;24.90;76.90;;;;;;1968021;28;20027;-66
2023/06/19 01:10:04;;;;;;;14.35;10.55;;;24.90;77.00;;;;;;1972810;28;20029;-66
2023/06/19 01:11:01;;;;;;;18.20;10.10;;;24.90;77.00;;;;;;1966235;28;20029;-66
2023/06/19 01:12:04;;;;;;;16.60;10.82;;;24.90;76.90;;;;;;1964588;28;20026;-66
2023/06/19 01:13:05;;;;;;;16.00;9.93;;;24.90;76.90;;;;;;1960287;28;20112;-66
2023/06/19 01:14:26;;;;;;;14.43;9.38;;;24.90;76.90;;;;;;1982042;28;20430;-66
2023/06/19 01:15:24;;;;;;;15.98;10.73;;;24.90;76.90;;;;;;1949051;28;20045;-66
2023/06/19 01:16:21;;;;;;;16.55;9.68;;;24.80;76.90;;;;;;1959005;28;20122;-66
2023/06/19 01:17:19;;;;;;;14.32;10.05;;;24.90;76.90;;;;;;1964884;28;20041;-66
2023/06/19 01:18:16;;;;;;;14.57;9.75;;;24.80;76.90;;;;;;1965838;28;20025;-66
2023/06/19 01:19:17;;;;;;;13.68;9.68;;;24.90;76.90;;;;;;1965692;28;20102;-66
2023/06/19 01:20:15;;;;;;;18.48;10.63;;;24.90;76.90;;;;;;1965147;28;20026;-66
2023/06/19 01:21:15;;;;;;;14.35;9.77;;;24.80;76.90;;;;;;1972268;28;20108;-66
2023/06/19 01:22:23;;;;;;;14.25;9.82;;;24.80;76.90;;;;;;1979961;28;20030;-66
2023/06/19 01:23:21;;;;;;;14.10;10.52;;;24.90;76.90;;;;;;1971594;28;20053;-66
2023/06/19 01:24:18;;;;;;;12.48;9.35;;;25.00;77.00;;;;;;1971145;28;20092;-66
2023/06/19 01:25:16;;;;;;;14.10;10.05;;;24.80;76.90;;;;;;1973075;28;20033;-66
2023/06/19 01:26:14;;;;;;;14.60;10.82;;;24.90;76.90;;;;;;1972559;28;20021;-66
2023/06/19 01:27:13;;;;;;;16.48;10.77;;;24.90;77.00;;;;;;1974591;28;20021;-66
2023/06/19 01:28:11;;;;;;;13.50;10.43;;;24.90;77.00;;;;;;1972276;28;20032;-66
2023/06/19 01:29:09;;;;;;;12.50;9.55;;;24.80;76.90;;;;;;1972492;28;21887;-66
2023/06/19 01:30:07;;;;;;;14.13;9.38;;;24.90;77.00;;;;;;1972571;28;20014;-65
2023/06/19 01:31:20;;;;;;;16.88;10.93;;;24.90;77.00;;;;;;1972098;28;20025;-66
2023/06/19 01:32:28;;;;;;;16.13;10.38;;;24.90;77.00;;;;;;1964754;28;20398;-66
2023/06/19 01:33:28;;;;;;;15.95;10.13;;;24.80;76.90;;;;;;1966114;28;20026;-66
2023/06/19 01:34:26;;;;;;;16.45;10.63;;;24.90;77.00;;;;;;1963859;28;20903;-66
2023/06/19 01:35:27;;;;;;;13.70;10.20;;;24.80;76.90;;;;;;1970347;28;20029;-66
2023/06/19 01:36:25;;;;;;;;;;;24.80;76.90;;;;;;1972764;28;20010;-66
2023/06/19 01:37:23;;;;;;;13.60;9.68;;;24.80;76.90;;;;;;1971148;28;20332;-66
2023/06/19 01:38:21;;;;;;;15.95;9.30;;;24.80;76.90;;;;;;1972767;28;20550;-66
2023/06/19 01:39:18;;;;;;;12.43;9.55;;;24.90;77.00;;;;;;1971460;28;20566;-66
2023/06/19 01:40:16;;;;;;;13.68;9.82;;;24.80;76.90;;;;;;1971253;28;20036;-66
2023/06/19 01:41:15;;;;;;;14.93;10.27;;;24.90;77.00;;;;;;1972483;28;20022;-65
2023/06/19 01:42:13;;;;;;;14.35;10.20;;;24.90;77.00;;;;;;1964512;28;20045;-66
2023/06/19 01:43:10;;;;;;;13.25;10.25;;;24.90;77.00;;;;;;1955926;28;20065;-66
2023/06/19 01:44:08;;;;;;;13.93;9.75;;;25.00;77.00;;;;;;1971158;28;20060;-66
2023/06/19 01:45:06;;;;;;;15.00;9.55;;;24.90;77.00;;;;;;1980741;28;20025;-66
2023/06/19 01:46:04;;;;;;;12.73;9.50;;;24.80;76.90;;;;;;1971494;28;20037;-66
2023/06/19 01:47:10;;;;;;;12.55;9.13;;;24.90;77.00;;;;;;1965577;28;20022;-66
2023/06/19 01:48:08;;;;;;;13.48;10.55;;;24.90;77.30;;;;;;1965136;28;20030;-66
2023/06/19 01:49:12;;;;;;;13.73;10.27;;;24.80;76.90;;;;;;1976701;28;20052;-66
2023/06/19 01:50:10;;;;;;;12.90;9.55;;;24.80;76.90;;;;;;1971266;28;20695;-66
2023/06/19 01:51:08;;;;;;;13.25;9.85;;;24.80;76.90;;;;;;1972427;28;20029;-66
2023/06/19 01:52:06;;;;;;;20.38;9.93;;;24.90;77.00;;;;;;1971694;28;20032;-66
2023/06/19 01:53:03;;;;;;;15.15;10.38;;;24.90;77.00;;;;;;1964144;28;20020;-66
2023/06/19 01:54:01;;;;;;;12.80;8.60;;;24.80;77.00;;;;;;1969103;28;20037;-66
2023/06/19 01:54:58;;;;;;;13.85;9.40;;;24.80;76.90;;;;;;1974449;28;20086;-66
2023/06/19 01:55:56;;;;;;;12.65;10.25;;;24.90;77.00;;;;;;1971451;28;20033;-66
2023/06/19 01:56:53;;;;;;;14.45;10.43;;;24.90;77.00;;;;;;1972394;28;20028;-66
2023/06/19 01:57:51;;;;;;;12.70;10.07;;;24.80;77.00;;;;;;1971015;28;20622;-66
2023/06/19 01:58:48;;;;;;;14.40;9.82;;;24.90;77.00;;;;;;1965488;28;20045;-66
2023/06/19 01:59:46;;;;;;;12.30;8.77;;;24.80;77.00;;;;;;1972964;28;20041;-66
2023/06/19 02:00:43;;;;;;;13.60;9.95;;;24.80;77.00;;;;;;1973738;28;20492;-66
2023/06/19 02:01:41;;;;;;;13.75;9.70;;;24.80;77.00;;;;;;1981388;28;20122;-66
2023/06/19 02:02:38;;;;;;;13.00;9.80;;;24.80;77.00;;;;;;1979743;28;20130;-66
2023/06/19 02:03:36;;;;;;;12.75;9.18;;;24.90;77.00;;;;;;1975089;28;20095;-66
2023/06/19 02:04:33;;;;;;;12.95;8.85;;;24.80;77.00;;;;;;1972752;28;20061;-66
2023/06/19 02:05:31;;;;;;;14.77;9.65;;;24.80;77.00;;;;;;1974194;28;20083;-66
2023/06/19 02:06:30;;;;;;;15.82;10.07;;;24.80;77.00;;;;;;1974495;28;20079;-66
2023/06/19 02:07:27;;;;;;;12.13;9.20;;;24.80;77.00;;;;;;1973368;28;20052;-65
2023/06/19 02:08:25;;;;;;;12.18;8.77;;;24.80;77.00;;;;;;1971959;28;20741;-66
2023/06/19 02:09:22;;;;;;;15.70;9.35;;;24.80;77.00;;;;;;1971569;28;20033;-66
2023/06/19 02:10:20;;;;;;;15.88;9.93;;;24.80;77.00;;;;;;1972003;28;20040;-66
2023/06/19 02:11:17;;;;;;;13.45;9.35;;;24.80;77.00;;;;;;1973828;28;20194;-66
2023/06/19 02:12:15;;;;;;;15.20;9.60;;;24.70;76.90;;;;;;1972420;28;20057;-66
2023/06/19 02:13:13;;;;;;;13.68;8.63;;;24.80;77.00;;;;;;1973974;28;20018;-66
2023/06/19 02:14:11;;;;;;;11.63;9.48;;;24.90;77.00;;;;;;1973602;28;20028;-65
2023/06/19 02:15:09;;;;;;;12.68;10.10;;;24.80;77.00;;;;;;1970886;28;20024;-66
2023/06/19 02:16:06;;;;;;;13.25;9.35;;;24.80;77.00;;;;;;1974456;28;20048;-66
2023/06/19 02:17:04;;;;;;;12.35;9.07;;;24.90;77.00;;;;;;1973901;28;20036;-66
2023/06/19 02:18:02;;;;;;;12.65;9.75;;;24.80;77.00;;;;;;1973023;28;20089;-66
2023/06/19 02:19:00;;;;;;;12.65;9.60;;;24.80;77.00;;;;;;1972495;28;20809;-66
2023/06/19 02:19:57;;;;;;;12.05;9.85;;;24.90;77.10;;;;;;1972154;28;20059;-66
2023/06/19 02:20:55;;;;;;;12.07;8.93;;;24.80;77.00;;;;;;1970927;28;20022;-66
2023/06/19 02:21:52;;;;;;;12.38;9.38;;;24.80;77.00;;;;;;1969680;28;20025;-66
2023/06/19 02:22:50;;;;;;;15.73;9.35;;;24.80;77.00;;;;;;1971154;28;20092;-66
2023/06/19 02:23:48;;;;;;;13.07;9.07;;;24.80;77.00;;;;;;1971534;28;20037;-66
2023/06/19 02:24:45;;;;;;;14.25;9.55;;;24.80;77.30;;;;;;1971432;28;20022;-66
2023/06/19 02:25:43;;;;;;;13.20;9.38;;;24.80;77.00;;;;;;1973410;28;20037;-66
2023/06/19 02:26:40;;;;;;;10.65;9.55;;;24.80;77.00;;;;;;1981632;28;20024;-66
2023/06/19 02:27:38;;;;;;;10.90;8.65;;;24.80;77.00;;;;;;1977775;28;20056;-66
2023/06/19 02:28:35;;;;;;;12.70;8.90;;;24.80;77.00;;;;;;1968935;28;20056;-66
2023/06/19 02:29:36;;;;;;;13.98;10.18;;;24.80;77.00;;;;;;1973204;28;20017;-66
2023/06/19 02:30:34;;;;;;;11.57;9.25;;;24.80;77.10;;;;;;1973284;28;20018;-66
2023/06/19 02:31:31;;;;;;;13.07;10.02;;;24.80;77.10;;;;;;1973402;28;20491;-66
2023/06/19 02:32:29;;;;;;;12.15;9.10;;;24.80;77.10;;;;;;1974090;28;20036;-66
2023/06/19 02:33:26;;;;;;;14.05;8.90;;;24.80;77.00;;;;;;1973509;28;20453;-66
2023/06/19 02:34:24;;;;;;;12.93;8.65;;;24.90;77.10;;;;;;1973367;28;20028;-66
2023/06/19 02:35:22;;;;;;;11.40;9.55;;;24.80;77.10;;;;;;1973566;28;20039;-66
2023/06/19 02:36:19;;;;;;;13.30;9.55;;;24.90;77.10;;;;;;1973339;28;20040;-66
2023/06/19 02:37:17;;;;;;;13.65;9.07;;;24.80;77.10;;;;;;1972172;28;20080;-66
2023/06/19 02:38:14;;;;;;;16.05;9.13;;;24.80;77.10;;;;;;1972516;28;20025;-66
2023/06/19 02:39:12;;;;;;;12.27;9.23;;;24.80;77.10;;;;;;1971860;28;20033;-66
2023/06/19 02:40:10;;;;;;;14.60;9.00;;;24.80;77.70;;;;;;1971685;28;20058;-66
2023/06/19 02:41:08;;;;;;;13.65;9.32;;;24.80;77.10;;;;;;1971611;28;20064;-66
2023/06/19 02:42:06;;;;;;;12.18;9.20;;;24.80;77.10;;;;;;1973276;28;20017;-66
2023/06/19 02:43:03;;;;;;;11.70;8.65;;;24.80;77.10;;;;;;1972705;28;20033;-66
2023/06/19 02:44:01;;;;;;;10.95;8.80;;;24.70;77.00;;;;;;1972703;28;20507;-66
2023/06/19 02:45:03;;;;;;;14.70;9.35;;;24.80;77.10;;;;;;1972853;28;20070;-65
2023/06/19 02:46:00;;;;;;;11.10;8.10;;;24.80;77.10;;;;;;1971694;28;20021;-66
2023/06/19 02:46:58;;;;;;;10.35;8.77;;;24.80;77.10;;;;;;1972231;28;20079;-66
2023/06/19 02:47:55;;;;;;;10.88;8.63;;;24.80;77.10;;;;;;1974644;28;20045;-66
2023/06/19 02:48:53;;;;;;;10.70;8.90;;;24.80;77.10;;;;;;1973323;28;20684;-66
2023/06/19 02:49:50;;;;;;;11.45;8.95;;;24.80;77.10;;;;;;1972054;28;20038;-66
2023/06/19 02:50:48;;;;;;;13.63;8.88;;;24.80;77.10;;;;;;1971233;28;20407;-66
2023/06/19 02:51:46;;;;;;;13.95;9.23;;;24.80;77.10;;;;;;1972287;28;20030;-66
2023/06/19 02:52:43;;;;;;;12.38;8.27;;;24.80;77.10;;;;;;1970675;28;20026;-66
2023/06/19 02:53:41;;;;;;;12.43;8.63;;;24.80;77.10;;;;;;1971828;28;21066;-66
2023/06/19 02:54:39;;;;;;;12.70;9.13;;;24.80;77.10;;;;;;1969335;28;20420;-66
2023/06/19 02:55:36;;;;;;;12.07;8.85;;;24.80;77.10;;;;;;1970140;28;20029;-66
2023/06/19 02:56:34;;;;;;;14.02;8.80;;;24.80;77.10;;;;;;1972356;28;20472;-66
2023/06/19 02:57:31;;;;;;;14.05;9.07;;;24.80;77.10;;;;;;1972124;28;20033;-65
2023/06/19 02:58:29;;;;;;;10.75;8.70;;;24.80;77.10;;;;;;1971470;28;20044;-66
2023/06/19 02:59:26;;;;;;;12.07;8.82;;;24.80;77.10;;;;;;1972801;28;20032;-66
2023/06/19 03:00:24;;;;;;;14.68;9.25;;;24.80;77.10;;;;;;1972071;28;20415;-66
2023/06/19 03:01:22;;;;;;;12.93;9.38;;;24.80;77.10;;;;;;1971381;28;20034;-66
2023/06/19 03:02:19;;;;;;;13.43;9.07;;;24.90;77.20;;;;;;1967682;28;20022;-66
2023/06/19 03:03:17;;;;;;;11.05;8.93;;;24.80;77.10;;;;;;1972530;28;20029;-66
2023/06/19 03:04:14;;;;;;;10.55;8.35;;;24.80;77.10;;;;;;1973036;28;20025;-66
2023/06/19 03:05:14;;;;;;;12.75;8.77;;;24.80;77.10;;;;;;1971069;28;20025;-66
2023/06/19 03:06:13;;;;;;;9.70;8.38;;;24.80;77.10;;;;;;1969496;28;20369;-66
2023/06/19 03:07:13;;;;;;;11.93;9.20;;;24.80;77.10;;;;;;1968233;28;20120;-66
2023/06/19 03:08:11;;;;;;;9.95;8.25;;;24.80;77.10;;;;;;1971647;28;20091;-66
2023/06/19 03:09:12;;;;;;;10.05;8.32;;;24.80;77.10;;;;;;1971238;28;20084;-66
2023/06/19 03:10:09;;;;;;;13.65;8.90;;;24.80;77.80;;;;;;1971231;28;20498;-66
2023/06/19 03:11:07;;;;;;;9.88;8.75;;;24.80;77.10;;;;;;1973458;28;20046;-66
2023/06/19 03:12:05;;;;;;;13.10;8.95;;;24.70;77.10;;;;;;1969177;28;20022;-66
2023/06/19 03:13:02;;;;;;;12.25;9.02;;;24.80;77.10;;;;;;1972117;28;20029;-66
2023/06/19 03:14:07;;;;;;;13.98;9.02;;;24.80;77.10;;;;;;1972893;28;20028;-66
2023/06/19 03:15:05;;;;;;;12.32;8.90;;;24.80;77.10;;;;;;1974600;28;20056;-66
2023/06/19 03:16:02;;;;;;;11.18;9.02;;;24.80;77.10;;;;;;1972511;28;20028;-66
2023/06/19 03:17:00;;;;;;;12.27;9.30;;;24.80;77.10;;;;;;1972501;28;20025;-66
2023/06/19 03:17:57;;;;;;;9.38;8.25;;;24.80;77.10;;;;;;1971183;28;20029;-66
2023/06/19 03:18:55;;;;;;;9.77;8.30;;;24.80;77.10;;;;;;1972680;28;20046;-66
2023/06/19 03:19:52;;;;;;;11.35;8.20;;;24.70;77.10;;;;;;1968782;28;20151;-65
2023/06/19 03:20:50;;;;;;;10.30;8.38;;;24.80;77.10;;;;;;1970467;28;20520;-66
2023/06/19 03:21:47;;;;;;;11.75;9.57;;;24.80;77.10;;;;;;1970422;28;20041;-66
2023/06/19 03:22:45;;;;;;;13.00;8.95;;;24.80;77.10;;;;;;1971407;28;20472;-66
2023/06/19 03:23:43;;;;;;;12.93;8.30;;;24.80;77.10;;;;;;1971236;28;20107;-66
2023/06/19 03:24:40;;;;;;;10.93;8.85;;;24.80;77.10;;;;;;1970329;28;20475;-65
2023/06/19 03:25:42;;;;;;;8.98;7.72;;;24.80;77.10;;;;;;1971473;28;20091;-66
2023/06/19 03:26:40;;;;;;;11.80;8.48;;;24.80;77.10;;;;;;1971662;28;20074;-66
2023/06/19 03:27:37;;;;;;;10.88;8.32;;;24.80;77.10;;;;;;1972953;28;20067;-66
2023/06/19 03:28:35;;;;;;;11.07;7.90;;;24.80;77.10;;;;;;1972111;28;20037;-66
2023/06/19 03:29:32;;;;;;;9.95;7.38;;;24.80;77.10;;;;;;1974225;28;20009;-66
2023/06/19 03:30:30;;;;;;;12.80;8.73;;;24.80;77.10;;;;;;1971704;28;20032;-66
2023/06/19 03:31:27;;;;;;;10.93;8.70;;;24.80;77.20;;;;;;1973327;28;20025;-65
2023/06/19 03:32:25;;;;;;;13.27;8.65;;;24.80;77.10;;;;;;1971328;28;20065;-66
2023/06/19 03:33:23;;;;;;;9.77;7.45;;;24.70;77.10;;;;;;1973158;28;20025;-65
2023/06/19 03:34:20;;;;;;;11.48;8.57;;;24.80;77.10;;;;;;1971844;28;20036;-66
2023/06/19 03:35:18;;;;;;;10.50;7.90;;;24.80;77.10;;;;;;1973222;28;20033;-66
2023/06/19 03:36:15;;;;;;;14.35;8.35;;;24.80;77.10;;;;;;1972135;28;20049;-66
2023/06/19 03:37:13;;;;;;;10.30;8.40;;;24.80;77.20;;;;;;1972251;28;20691;-66
2023/06/19 03:38:10;;;;;;;11.38;8.32;;;24.80;77.10;;;;;;1970078;28;20029;-66
2023/06/19 03:39:08;;;;;;;10.82;7.90;;;24.80;77.20;;;;;;1979162;28;20454;-66
2023/06/19 03:40:06;;;;;;;11.30;9.38;;;24.80;77.10;;;;;;1978476;28;20029;-66
2023/06/19 03:41:03;;;;;;;9.70;8.18;;;24.80;77.10;;;;;;1972050;28;20029;-66
2023/06/19 03:42:01;;;;;;;12.25;8.63;;;24.80;77.10;;;;;;1971718;28;20076;-66
2023/06/19 03:42:59;;;;;;;9.98;8.10;;;24.80;77.10;;;;;;1972611;28;20511;-66
2023/06/19 03:43:56;;;;;;;10.75;8.20;;;24.80;77.10;;;;;;1972198;28;20044;-66
2023/06/19 03:44:54;;;;;;;12.35;8.95;;;24.80;77.10;;;;;;1972824;28;20164;-66
2023/06/19 03:45:51;;;;;;;11.23;8.02;;;24.80;77.10;;;;;;1970793;28;20454;-66
2023/06/19 03:46:50;;;;;;;12.68;8.50;;;24.80;77.10;;;;;;1971248;28;20149;-66
2023/06/19 03:47:48;;;;;;;10.85;8.35;;;24.80;77.10;;;;;;1971201;28;21749;-66
2023/06/19 03:48:45;;;;;;;10.73;7.55;;;24.80;77.10;;;;;;1971500;28;20025;-66
2023/06/19 03:49:43;;;;;;;10.52;8.20;;;24.70;77.10;;;;;;1970627;28;20804;-66
2023/06/19 03:50:40;;;;;;;10.20;8.27;;;24.80;77.10;;;;;;1971471;28;20075;-66
2023/06/19 03:51:38;;;;;;;11.98;8.38;;;24.80;77.10;;;;;;1972549;28;20099;-66
2023/06/19 03:52:36;;;;;;;11.40;8.73;;;24.80;77.10;;;;;;1972992;28;20026;-65
2023/06/19 03:53:34;;;;;;;11.55;8.65;;;24.80;77.10;;;;;;1971921;28;20051;-66
2023/06/19 03:54:32;;;;;;;9.77;8.60;;;24.80;77.20;;;;;;1972498;28;20047;-66
2023/06/19 03:55:29;;;;;;;11.48;7.80;;;24.70;77.10;;;;;;1971892;28;20052;-66
2023/06/19 03:56:27;;;;;;;8.65;7.57;;;24.80;77.10;;;;;;1972244;28;20026;-66
2023/06/19 03:57:24;;;;;;;9.25;7.32;;;24.80;77.20;;;;;;1972775;28;20108;-66
2023/06/19 03:58:22;;;;;;;11.52;8.52;;;24.80;77.10;;;;;;1969876;28;20032;-66
2023/06/19 03:59:20;;;;;;;9.70;7.97;;;24.80;77.10;;;;;;1970173;28;20547;-66
2023/06/19 04:00:18;;;;;;;9.90;8.30;;;24.80;77.10;;;;;;1966213;28;20038;-66
2023/06/19 04:01:15;;;;;;;11.40;7.78;;;24.80;77.10;;;;;;1972895;28;20053;-66
2023/06/19 04:02:13;;;;;;;13.63;8.80;;;24.80;77.10;;;;;;1972211;28;20051;-66
2023/06/19 04:03:10;;;;;;;12.73;9.20;;;24.80;77.10;;;;;;1972922;28;20029;-66
2023/06/19 04:04:08;;;;;;;9.65;8.35;;;24.80;77.10;;;;;;1974009;28;20044;-66
2023/06/19 04:05:06;;;;;;;9.70;8.07;;;24.80;77.10;;;;;;1972571;28;20022;-67
2023/06/19 04:06:03;;;;;;;11.43;8.25;;;24.80;77.10;;;;;;1973471;28;20455;-66
2023/06/19 04:07:01;;;;;;;9.57;7.88;;;24.80;77.10;;;;;;1971348;28;20022;-66
2023/06/19 04:07:58;;;;;;;9.05;7.53;;;24.80;77.10;;;;;;1971716;28;20025;-66
2023/06/19 04:08:56;;;;;;;9.55;8.55;;;24.80;77.10;;;;;;1973055;28;20369;-66
2023/06/19 04:09:54;;;;;;;9.38;8.25;;;24.80;77.00;;;;;;1971697;28;20029;-67
2023/06/19 04:10:52;;;;;;;10.55;7.72;;;24.80;77.10;;;;;;1972465;28;20018;-67
2023/06/19 04:11:49;;;;;;;10.07;8.10;;;24.80;77.10;;;;;;1973385;28;20452;-67
2023/06/19 04:12:47;;;;;;;11.52;7.97;;;24.80;77.10;;;;;;1974594;28;20029;-66
2023/06/19 04:13:45;;;;;;;10.23;7.68;;;24.80;77.00;;;;;;1971629;28;20021;-66
2023/06/19 04:14:42;;;;;;;9.82;7.50;;;24.80;77.10;;;;;;1971897;28;20033;-66
2023/06/19 04:15:40;;;;;;;12.02;8.07;;;24.80;77.10;;;;;;1971208;28;20025;-66
2023/06/19 04:16:37;;;;;;;9.95;7.88;;;24.80;77.10;;;;;;1973381;28;20021;-66
2023/06/19 04:17:35;;;;;;;10.18;7.15;;;24.80;77.10;;;;;;1972232;28;20877;-69
2023/06/19 04:18:33;;;;;;;10.27;7.72;;;24.80;77.10;;;;;;1971254;28;20026;-67
2023/06/19 04:19:30;;;;;;;13.82;8.27;;;24.80;77.00;;;;;;1972445;28;21787;-67
2023/06/19 04:20:28;;;;;;;9.43;7.18;;;24.80;77.10;;;;;;1971750;28;20021;-67
2023/06/19 04:21:26;;;;;;;8.93;7.20;;;24.80;77.00;;;;;;1974841;28;20022;-66
2023/06/19 04:22:23;;;;;;;11.40;8.18;;;24.80;77.60;;;;;;1973677;28;20079;-67
2023/06/19 04:23:21;;;;;;;11.13;7.38;;;24.80;77.00;;;;;;1973313;28;20042;-67
2023/06/19 04:24:18;;;;;;;10.57;7.82;;;24.80;77.00;;;;;;1975307;28;20021;-66
2023/06/19 04:25:16;;;;;;;10.48;8.10;;;24.80;77.00;;;;;;1975321;28;20034;-66
2023/06/19 04:26:13;;;;;;;11.82;8.25;;;24.80;77.00;;;;;;1972655;28;20507;-66
2023/06/19 04:27:11;;;;;;;11.70;7.75;;;24.80;77.00;;;;;;1974348;28;20108;-69
2023/06/19 04:28:08;;;;;;;11.55;8.10;;;24.80;77.00;;;;;;1972929;28;20060;-67
2023/06/19 04:29:07;;;;;;;9.75;8.35;;;24.80;77.00;;;;;;1972255;28;20425;-68
2023/06/19 04:30:06;;;;;;;8.60;7.10;;;24.80;77.00;;;;;;1973540;28;20077;-67
2023/06/19 04:31:03;;;;;;;10.05;7.65;;;24.80;77.00;;;;;;1975411;28;20036;-65
2023/06/19 04:32:03;;;;;;;12.95;8.77;;;24.80;77.00;;;;;;1971670;28;20035;-67
2023/06/19 04:33:00;;;;;;;10.20;7.85;;;24.80;77.00;;;;;;1972203;28;20025;-67
2023/06/19 04:33:58;;;;;;;11.50;7.93;;;24.80;77.00;;;;;;1972840;28;20029;-67
2023/06/19 04:34:55;;;;;;;8.82;7.80;;;24.80;77.00;;;;;;1969942;28;20041;-67
2023/06/19 04:35:53;;;;;;;10.07;7.32;;;24.80;77.00;;;;;;1972042;28;20036;-66
2023/06/19 04:36:51;;;;;;;11.93;8.30;;;24.80;77.00;;;;;;1971521;28;20025;-67
2023/06/19 04:37:48;;;;;;;9.70;7.95;;;24.80;77.00;;;;;;1968624;28;20083;-66
2023/06/19 04:38:46;;;;;;;12.35;7.78;;;24.80;77.00;;;;;;1969500;28;20045;-66
2023/06/19 04:39:43;;;;;;;9.38;7.70;;;24.80;77.00;;;;;;1973017;28;20643;-67
2023/06/19 04:40:43;;;;;;;11.20;7.82;;;24.80;77.00;;;;;;1975309;28;20055;-66
2023/06/19 04:41:43;;;;;;;11.40;8.30;;;24.80;77.00;;;;;;1973464;28;20101;-66
2023/06/19 04:42:41;;;;;;;8.65;7.70;;;24.80;77.00;;;;;;1973687;28;20108;-66
2023/06/19 04:43:41;;;;;;;8.73;7.05;;;24.90;77.00;;;;;;1973394;28;20388;-67
2023/06/19 04:44:38;;;;;;;10.63;7.30;;;24.80;77.00;;;;;;1976188;28;20033;-68
2023/06/19 04:45:36;;;;;;;11.93;7.88;;;24.70;76.90;;;;;;1975035;28;20013;-66
2023/06/19 04:46:34;;;;;;;9.63;6.78;;;24.80;77.00;;;;;;1974593;28;20029;-66
2023/06/19 04:47:31;;;;;;;8.50;7.60;;;24.80;76.90;;;;;;1974921;28;20018;-66
2023/06/19 04:48:29;;;;;;;9.18;7.30;;;24.80;76.90;;;;;;1975594;28;20041;-67
2023/06/19 04:49:29;;;;;;;9.02;7.38;;;24.80;77.00;;;;;;1971179;28;20460;-68
2023/06/19 04:50:27;;;;;;;7.72;6.88;;;24.80;76.90;;;;;;1973404;28;20071;-66
2023/06/19 04:51:26;;;;;;;11.02;8.10;;;24.80;76.90;;;;;;1974376;28;20025;-67
2023/06/19 04:52:23;;;;;;;10.15;7.80;;;24.80;76.90;;;;;;1972274;28;20028;-69
2023/06/19 04:53:21;;;;;;;8.45;7.50;;;24.80;76.90;;;;;;1975666;28;20017;-68
2023/06/19 04:54:18;;;;;;;9.50;7.18;;;24.80;76.90;;;;;;1973522;28;20021;-66
2023/06/19 04:55:16;;;;;;;8.73;7.32;;;24.90;77.00;;;;;;1974390;28;20037;-66
2023/06/19 04:56:14;;;;;;;10.00;7.75;;;24.80;76.90;;;;;;1971456;28;20040;-66
2023/06/19 04:57:12;;;;;;;9.68;7.78;;;24.80;76.90;;;;;;1975225;28;20527;-66
2023/06/19 04:58:09;;;;;;;8.38;7.43;;;24.80;76.90;;;;;;1969934;28;20037;-68
2023/06/19 04:59:07;;;;;;;10.68;7.47;;;24.80;76.90;;;;;;1975735;28;20396;-68